sensor_id;sensor_type;location;lat;lon;timestamp;P1;durP1;ratioP1;P2;durP2;ratioP2
76379;SDS011;65201;21.060;105.826;2023-05-07T00:00:48;23.20;;;13.75;;
76379;SDS011;65201;21.060;105.826;2023-05-07T00:03:14;18.30;;;12.48;;
76379;SDS011;65201;21.060;105.826;2023-05-07T00:05:40;20.65;;;13.50;;
76379;SDS011;65201;21.060;105.826;2023-05-07T00:08:06;18.87;;;12.63;;
76379;SDS011;65201;21.060;105.826;2023-05-07T00:10:33;20.27;;;13.00;;
76379;SDS011;65201;21.060;105.826;2023-05-07T00:12:59;20.67;;;14.32;;
76379;SDS011;65201;21.060;105.826;2023-05-07T00:15:25;20.33;;;13.13;;
76379;SDS011;65201;21.060;105.826;2023-05-07T00:17:51;23.50;;;13.97;;
76379;SDS011;65201;21.060;105.826;2023-05-07T00:20:17;17.05;;;12.27;;
76379;SDS011;65201;21.060;105.826;2023-05-07T00:22:43;21.63;;;13.38;;
76379;SDS011;65201;21.060;105.826;2023-05-07T00:25:10;20.25;;;13.70;;
76379;SDS011;65201;21.060;105.826;2023-05-07T00:27:36;18.60;;;12.52;;
76379;SDS011;65201;21.060;105.826;2023-05-07T00:30:02;22.70;;;12.93;;
76379;SDS011;65201;21.060;105.826;2023-05-07T00:32:28;19.95;;;12.70;;
76379;SDS011;65201;21.060;105.826;2023-05-07T00:34:54;19.83;;;12.82;;
76379;SDS011;65201;21.060;105.826;2023-05-07T00:37:20;20.85;;;13.30;;
76379;SDS011;65201;21.060;105.826;2023-05-07T00:39:46;20.43;;;12.73;;
76379;SDS011;65201;21.060;105.826;2023-05-07T00:42:12;19.77;;;12.98;;
76379;SDS011;65201;21.060;105.826;2023-05-07T00:44:40;19.50;;;12.95;;
76379;SDS011;65201;21.060;105.826;2023-05-07T00:47:06;21.17;;;13.00;;
76379;SDS011;65201;21.060;105.826;2023-05-07T00:49:39;22.07;;;13.47;;
76379;SDS011;65201;21.060;105.826;2023-05-07T00:52:07;19.40;;;13.02;;
76379;SDS011;65201;21.060;105.826;2023-05-07T00:54:33;17.40;;;12.55;;
76379;SDS011;65201;21.060;105.826;2023-05-07T00:57:00;20.35;;;12.52;;
76379;SDS011;65201;21.060;105.826;2023-05-07T00:59:27;18.55;;;12.85;;
76379;SDS011;65201;21.060;105.826;2023-05-07T01:01:53;19.13;;;12.90;;
76379;SDS011;65201;21.060;105.826;2023-05-07T01:04:19;19.35;;;12.40;;
76379;SDS011;65201;21.060;105.826;2023-05-07T01:06:45;19.90;;;13.20;;
76379;SDS011;65201;21.060;105.826;2023-05-07T01:09:11;20.30;;;12.93;;
76379;SDS011;65201;21.060;105.826;2023-05-07T01:11:38;20.50;;;12.93;;
76379;SDS011;65201;21.060;105.826;2023-05-07T01:14:04;21.42;;;12.88;;
76379;SDS011;65201;21.060;105.826;2023-05-07T01:16:31;17.23;;;11.88;;
76379;SDS011;65201;21.060;105.826;2023-05-07T01:18:58;18.60;;;12.60;;
76379;SDS011;65201;21.060;105.826;2023-05-07T01:21:25;16.98;;;12.90;;
76379;SDS011;65201;21.060;105.826;2023-05-07T01:23:52;18.07;;;12.67;;
76379;SDS011;65201;21.060;105.826;2023-05-07T01:26:18;16.85;;;12.38;;
76379;SDS011;65201;21.060;105.826;2023-05-07T01:28:45;17.42;;;12.52;;
76379;SDS011;65201;21.060;105.826;2023-05-07T01:31:11;19.50;;;12.82;;
76379;SDS011;65201;21.060;105.826;2023-05-07T01:33:38;17.67;;;12.30;;
76379;SDS011;65201;21.060;105.826;2023-05-07T01:36:06;17.00;;;12.07;;
76379;SDS011;65201;21.060;105.826;2023-05-07T01:38:34;16.02;;;12.52;;
76379;SDS011;65201;21.060;105.826;2023-05-07T01:41:01;18.00;;;11.85;;
76379;SDS011;65201;21.060;105.826;2023-05-07T01:43:27;20.40;;;11.82;;
76379;SDS011;65201;21.060;105.826;2023-05-07T01:45:54;19.20;;;12.40;;
76379;SDS011;65201;21.060;105.826;2023-05-07T01:48:20;19.07;;;11.97;;
76379;SDS011;65201;21.060;105.826;2023-05-07T01:50:47;18.50;;;12.27;;
76379;SDS011;65201;21.060;105.826;2023-05-07T01:53:13;25.20;;;11.80;;
76379;SDS011;65201;21.060;105.826;2023-05-07T01:55:40;17.20;;;11.50;;
76379;SDS011;65201;21.060;105.826;2023-05-07T01:58:06;22.20;;;12.95;;
76379;SDS011;65201;21.060;105.826;2023-05-07T02:00:32;19.83;;;12.18;;
76379;SDS011;65201;21.060;105.826;2023-05-07T02:02:58;23.48;;;12.40;;
76379;SDS011;65201;21.060;105.826;2023-05-07T02:05:24;19.17;;;13.38;;
76379;SDS011;65201;21.060;105.826;2023-05-07T02:07:50;22.58;;;13.05;;
76379;SDS011;65201;21.060;105.826;2023-05-07T02:10:16;19.55;;;12.55;;
76379;SDS011;65201;21.060;105.826;2023-05-07T02:12:42;21.00;;;12.13;;
76379;SDS011;65201;21.060;105.826;2023-05-07T02:15:08;24.63;;;13.02;;
76379;SDS011;65201;21.060;105.826;2023-05-07T02:17:34;20.23;;;12.15;;
76379;SDS011;65201;21.060;105.826;2023-05-07T02:20:02;17.98;;;11.57;;
76379;SDS011;65201;21.060;105.826;2023-05-07T02:22:29;50.08;;;38.40;;
76379;SDS011;65201;21.060;105.826;2023-05-07T02:24:55;116.07;;;90.63;;
76379;SDS011;65201;21.060;105.826;2023-05-07T02:27:21;99.32;;;80.68;;
76379;SDS011;65201;21.060;105.826;2023-05-07T02:29:47;86.07;;;67.00;;
76379;SDS011;65201;21.060;105.826;2023-05-07T02:32:13;72.95;;;56.05;;
76379;SDS011;65201;21.060;105.826;2023-05-07T02:34:39;69.60;;;54.53;;
76379;SDS011;65201;21.060;105.826;2023-05-07T02:37:05;65.75;;;50.25;;
76379;SDS011;65201;21.060;105.826;2023-05-07T02:39:31;63.47;;;49.10;;
76379;SDS011;65201;21.060;105.826;2023-05-07T02:41:57;64.25;;;46.63;;
76379;SDS011;65201;21.060;105.826;2023-05-07T02:44:23;57.40;;;44.80;;
76379;SDS011;65201;21.060;105.826;2023-05-07T02:46:49;59.33;;;43.88;;
76379;SDS011;65201;21.060;105.826;2023-05-07T02:49:15;70.47;;;58.20;;
76379;SDS011;65201;21.060;105.826;2023-05-07T02:51:41;79.15;;;60.28;;
76379;SDS011;65201;21.060;105.826;2023-05-07T02:54:07;70.00;;;53.85;;
76379;SDS011;65201;21.060;105.826;2023-05-07T02:56:33;62.70;;;49.83;;
76379;SDS011;65201;21.060;105.826;2023-05-07T02:58:59;63.58;;;48.55;;
76379;SDS011;65201;21.060;105.826;2023-05-07T03:01:25;70.20;;;47.22;;
76379;SDS011;65201;21.060;105.826;2023-05-07T03:03:51;64.43;;;45.40;;
76379;SDS011;65201;21.060;105.826;2023-05-07T03:06:17;59.78;;;43.30;;
76379;SDS011;65201;21.060;105.826;2023-05-07T03:08:43;67.67;;;42.57;;
76379;SDS011;65201;21.060;105.826;2023-05-07T03:11:09;60.95;;;42.20;;
76379;SDS011;65201;21.060;105.826;2023-05-07T03:13:35;62.55;;;41.17;;
76379;SDS011;65201;21.060;105.826;2023-05-07T03:16:01;56.85;;;39.25;;
76379;SDS011;65201;21.060;105.826;2023-05-07T03:18:27;55.03;;;40.30;;
76379;SDS011;65201;21.060;105.826;2023-05-07T03:20:53;55.88;;;39.47;;
76379;SDS011;65201;21.060;105.826;2023-05-07T03:23:19;53.03;;;38.97;;
76379;SDS011;65201;21.060;105.826;2023-05-07T03:25:45;52.40;;;37.55;;
76379;SDS011;65201;21.060;105.826;2023-05-07T03:28:11;46.60;;;36.33;;
76379;SDS011;65201;21.060;105.826;2023-05-07T03:30:37;56.78;;;36.25;;
76379;SDS011;65201;21.060;105.826;2023-05-07T03:33:03;45.72;;;34.80;;
76379;SDS011;65201;21.060;105.826;2023-05-07T03:35:29;45.83;;;33.65;;
76379;SDS011;65201;21.060;105.826;2023-05-07T03:37:55;48.83;;;34.47;;
76379;SDS011;65201;21.060;105.826;2023-05-07T03:40:21;45.65;;;34.10;;
76379;SDS011;65201;21.060;105.826;2023-05-07T03:42:47;46.40;;;32.90;;
76379;SDS011;65201;21.060;105.826;2023-05-07T03:45:13;42.30;;;30.85;;
76379;SDS011;65201;21.060;105.826;2023-05-07T03:47:39;43.10;;;32.67;;
76379;SDS011;65201;21.060;105.826;2023-05-07T03:50:05;45.50;;;32.83;;
76379;SDS011;65201;21.060;105.826;2023-05-07T03:52:31;41.78;;;30.92;;
76379;SDS011;65201;21.060;105.826;2023-05-07T03:54:57;43.33;;;30.35;;
76379;SDS011;65201;21.060;105.826;2023-05-07T03:57:23;41.88;;;28.95;;
76379;SDS011;65201;21.060;105.826;2023-05-07T03:59:49;39.27;;;28.80;;
76379;SDS011;65201;21.060;105.826;2023-05-07T04:02:15;43.58;;;28.08;;
76379;SDS011;65201;21.060;105.826;2023-05-07T04:04:41;43.08;;;28.25;;
76379;SDS011;65201;21.060;105.826;2023-05-07T04:07:07;36.97;;;27.00;;
76379;SDS011;65201;21.060;105.826;2023-05-07T04:09:33;39.72;;;26.80;;
76379;SDS011;65201;21.060;105.826;2023-05-07T04:11:59;41.27;;;24.63;;
76379;SDS011;65201;21.060;105.826;2023-05-07T04:14:26;36.47;;;24.45;;
76379;SDS011;65201;21.060;105.826;2023-05-07T04:16:52;40.38;;;25.75;;
76379;SDS011;65201;21.060;105.826;2023-05-07T04:19:18;35.35;;;23.30;;
76379;SDS011;65201;21.060;105.826;2023-05-07T04:21:44;31.98;;;23.27;;
76379;SDS011;65201;21.060;105.826;2023-05-07T04:24:10;33.23;;;23.27;;
76379;SDS011;65201;21.060;105.826;2023-05-07T04:26:36;47.03;;;23.23;;
76379;SDS011;65201;21.060;105.826;2023-05-07T04:29:02;35.67;;;22.90;;
76379;SDS011;65201;21.060;105.826;2023-05-07T04:31:29;35.83;;;22.13;;
76379;SDS011;65201;21.060;105.826;2023-05-07T04:33:55;33.75;;;21.75;;
76379;SDS011;65201;21.060;105.826;2023-05-07T04:36:21;30.30;;;21.53;;
76379;SDS011;65201;21.060;105.826;2023-05-07T04:38:47;34.00;;;21.35;;
76379;SDS011;65201;21.060;105.826;2023-05-07T04:41:13;38.38;;;21.42;;
76379;SDS011;65201;21.060;105.826;2023-05-07T04:43:40;30.42;;;22.45;;
76379;SDS011;65201;21.060;105.826;2023-05-07T04:46:07;38.70;;;25.93;;
76379;SDS011;65201;21.060;105.826;2023-05-07T04:48:32;35.03;;;26.50;;
76379;SDS011;65201;21.060;105.826;2023-05-07T04:50:58;45.15;;;33.47;;
76379;SDS011;65201;21.060;105.826;2023-05-07T04:53:25;41.60;;;32.17;;
76379;SDS011;65201;21.060;105.826;2023-05-07T04:55:57;38.03;;;29.38;;
76379;SDS011;65201;21.060;105.826;2023-05-07T04:58:23;36.50;;;28.50;;
76379;SDS011;65201;21.060;105.826;2023-05-07T05:00:50;40.60;;;27.70;;
76379;SDS011;65201;21.060;105.826;2023-05-07T05:03:16;33.55;;;26.92;;
76379;SDS011;65201;21.060;105.826;2023-05-07T05:05:42;33.30;;;26.02;;
76379;SDS011;65201;21.060;105.826;2023-05-07T05:08:08;35.13;;;26.65;;
76379;SDS011;65201;21.060;105.826;2023-05-07T05:10:34;35.10;;;25.03;;
76379;SDS011;65201;21.060;105.826;2023-05-07T05:13:00;35.58;;;26.02;;
76379;SDS011;65201;21.060;105.826;2023-05-07T05:15:26;32.92;;;25.27;;
76379;SDS011;65201;21.060;105.826;2023-05-07T05:17:52;31.40;;;24.88;;
76379;SDS011;65201;21.060;105.826;2023-05-07T05:20:18;31.83;;;24.87;;
76379;SDS011;65201;21.060;105.826;2023-05-07T05:22:44;30.30;;;24.20;;
76379;SDS011;65201;21.060;105.826;2023-05-07T05:25:10;29.35;;;23.45;;
76379;SDS011;65201;21.060;105.826;2023-05-07T05:27:36;29.55;;;23.77;;
76379;SDS011;65201;21.060;105.826;2023-05-07T05:30:02;30.67;;;23.57;;
76379;SDS011;65201;21.060;105.826;2023-05-07T05:32:28;30.98;;;22.65;;
76379;SDS011;65201;21.060;105.826;2023-05-07T05:34:54;28.25;;;23.40;;
76379;SDS011;65201;21.060;105.826;2023-05-07T05:37:21;30.35;;;22.83;;
76379;SDS011;65201;21.060;105.826;2023-05-07T05:39:47;28.70;;;21.83;;
76379;SDS011;65201;21.060;105.826;2023-05-07T05:42:12;26.87;;;22.37;;
76379;SDS011;65201;21.060;105.826;2023-05-07T05:44:42;24.58;;;20.85;;
76379;SDS011;65201;21.060;105.826;2023-05-07T05:47:08;26.08;;;20.92;;
76379;SDS011;65201;21.060;105.826;2023-05-07T05:49:34;25.13;;;20.10;;
76379;SDS011;65201;21.060;105.826;2023-05-07T05:52:00;28.60;;;20.27;;
76379;SDS011;65201;21.060;105.826;2023-05-07T05:54:26;23.40;;;19.07;;
76379;SDS011;65201;21.060;105.826;2023-05-07T05:56:52;25.80;;;18.75;;
76379;SDS011;65201;21.060;105.826;2023-05-07T05:59:19;23.60;;;18.80;;
76379;SDS011;65201;21.060;105.826;2023-05-07T06:01:45;26.08;;;19.10;;
76379;SDS011;65201;21.060;105.826;2023-05-07T06:04:11;26.60;;;19.05;;
76379;SDS011;65201;21.060;105.826;2023-05-07T06:06:37;22.07;;;18.17;;
76379;SDS011;65201;21.060;105.826;2023-05-07T06:09:03;22.13;;;18.63;;
76379;SDS011;65201;21.060;105.826;2023-05-07T06:11:29;22.58;;;17.42;;
76379;SDS011;65201;21.060;105.826;2023-05-07T06:13:57;23.63;;;18.25;;
76379;SDS011;65201;21.060;105.826;2023-05-07T06:16:24;21.95;;;18.38;;
76379;SDS011;65201;21.060;105.826;2023-05-07T06:18:50;21.07;;;17.30;;
76379;SDS011;65201;21.060;105.826;2023-05-07T06:21:16;22.83;;;17.77;;
76379;SDS011;65201;21.060;105.826;2023-05-07T06:23:42;24.00;;;17.52;;
76379;SDS011;65201;21.060;105.826;2023-05-07T06:26:08;22.75;;;17.92;;
76379;SDS011;65201;21.060;105.826;2023-05-07T06:28:34;19.90;;;16.73;;
76379;SDS011;65201;21.060;105.826;2023-05-07T06:31:17;21.33;;;17.03;;
76379;SDS011;65201;21.060;105.826;2023-05-07T06:33:45;22.95;;;18.27;;
76379;SDS011;65201;21.060;105.826;2023-05-07T06:36:12;24.38;;;18.25;;
76379;SDS011;65201;21.060;105.826;2023-05-07T06:38:38;20.88;;;17.13;;
76379;SDS011;65201;21.060;105.826;2023-05-07T06:41:05;20.55;;;16.67;;
76379;SDS011;65201;21.060;105.826;2023-05-07T06:43:31;21.73;;;17.30;;
76379;SDS011;65201;21.060;105.826;2023-05-07T06:45:57;22.70;;;18.25;;
76379;SDS011;65201;21.060;105.826;2023-05-07T06:48:23;22.05;;;18.52;;
76379;SDS011;65201;21.060;105.826;2023-05-07T06:50:50;21.35;;;17.45;;
76379;SDS011;65201;21.060;105.826;2023-05-07T06:53:16;23.70;;;18.27;;
76379;SDS011;65201;21.060;105.826;2023-05-07T06:55:42;22.63;;;17.43;;
76379;SDS011;65201;21.060;105.826;2023-05-07T06:58:08;21.85;;;16.55;;
76379;SDS011;65201;21.060;105.826;2023-05-07T07:00:34;23.33;;;17.38;;
76379;SDS011;65201;21.060;105.826;2023-05-07T07:03:00;25.10;;;19.02;;
76379;SDS011;65201;21.060;105.826;2023-05-07T07:05:26;28.02;;;19.27;;
76379;SDS011;65201;21.060;105.826;2023-05-07T07:07:53;25.37;;;19.33;;
76379;SDS011;65201;21.060;105.826;2023-05-07T07:10:19;25.45;;;18.55;;
76379;SDS011;65201;21.060;105.826;2023-05-07T07:12:45;31.08;;;18.50;;
76379;SDS011;65201;21.060;105.826;2023-05-07T07:15:12;26.23;;;19.48;;
76379;SDS011;65201;21.060;105.826;2023-05-07T07:17:39;29.50;;;20.27;;
76379;SDS011;65201;21.060;105.826;2023-05-07T07:20:05;25.43;;;20.90;;
76379;SDS011;65201;21.060;105.826;2023-05-07T07:22:31;25.10;;;19.85;;
76379;SDS011;65201;21.060;105.826;2023-05-07T07:24:57;31.05;;;20.83;;
76379;SDS011;65201;21.060;105.826;2023-05-07T07:27:24;30.88;;;20.83;;
76379;SDS011;65201;21.060;105.826;2023-05-07T07:29:50;28.95;;;21.17;;
76379;SDS011;65201;21.060;105.826;2023-05-07T07:32:16;29.07;;;20.27;;
76379;SDS011;65201;21.060;105.826;2023-05-07T07:34:42;26.80;;;19.77;;
76379;SDS011;65201;21.060;105.826;2023-05-07T07:37:08;25.23;;;20.67;;
76379;SDS011;65201;21.060;105.826;2023-05-07T07:39:34;26.85;;;19.90;;
76379;SDS011;65201;21.060;105.826;2023-05-07T07:42:03;27.38;;;19.83;;
76379;SDS011;65201;21.060;105.826;2023-05-07T07:44:29;25.83;;;20.03;;
76379;SDS011;65201;21.060;105.826;2023-05-07T07:46:55;25.08;;;19.70;;
76379;SDS011;65201;21.060;105.826;2023-05-07T07:49:21;28.38;;;20.17;;
76379;SDS011;65201;21.060;105.826;2023-05-07T07:51:47;23.08;;;18.92;;
76379;SDS011;65201;21.060;105.826;2023-05-07T07:54:13;27.73;;;18.80;;
76379;SDS011;65201;21.060;105.826;2023-05-07T07:56:40;26.67;;;18.60;;
76379;SDS011;65201;21.060;105.826;2023-05-07T07:59:06;24.83;;;19.35;;
76379;SDS011;65201;21.060;105.826;2023-05-07T08:01:32;26.85;;;19.10;;
76379;SDS011;65201;21.060;105.826;2023-05-07T08:03:58;25.50;;;19.00;;
76379;SDS011;65201;21.060;105.826;2023-05-07T08:06:25;27.15;;;19.10;;
76379;SDS011;65201;21.060;105.826;2023-05-07T08:08:53;25.53;;;18.80;;
76379;SDS011;65201;21.060;105.826;2023-05-07T08:11:20;28.00;;;19.45;;
76379;SDS011;65201;21.060;105.826;2023-05-07T08:13:47;26.10;;;19.85;;
76379;SDS011;65201;21.060;105.826;2023-05-07T08:16:13;22.73;;;19.20;;
76379;SDS011;65201;21.060;105.826;2023-05-07T08:18:39;25.90;;;19.52;;
76379;SDS011;65201;21.060;105.826;2023-05-07T08:21:06;34.50;;;19.83;;
76379;SDS011;65201;21.060;105.826;2023-05-07T08:23:32;22.23;;;18.60;;
76379;SDS011;65201;21.060;105.826;2023-05-07T08:26:00;26.45;;;20.30;;
76379;SDS011;65201;21.060;105.826;2023-05-07T08:28:26;23.60;;;19.10;;
76379;SDS011;65201;21.060;105.826;2023-05-07T08:30:52;24.25;;;18.77;;
76379;SDS011;65201;21.060;105.826;2023-05-07T08:33:18;26.07;;;19.20;;
76379;SDS011;65201;21.060;105.826;2023-05-07T08:35:44;27.55;;;20.25;;
76379;SDS011;65201;21.060;105.826;2023-05-07T08:38:10;24.23;;;19.40;;
76379;SDS011;65201;21.060;105.826;2023-05-07T08:40:37;23.58;;;19.60;;
76379;SDS011;65201;21.060;105.826;2023-05-07T08:43:05;23.80;;;19.75;;
76379;SDS011;65201;21.060;105.826;2023-05-07T08:45:32;28.13;;;20.60;;
76379;SDS011;65201;21.060;105.826;2023-05-07T08:47:59;25.70;;;20.15;;
76379;SDS011;65201;21.060;105.826;2023-05-07T08:50:26;31.88;;;20.35;;
76379;SDS011;65201;21.060;105.826;2023-05-07T08:52:52;27.20;;;20.95;;
76379;SDS011;65201;21.060;105.826;2023-05-07T08:55:18;26.58;;;20.00;;
76379;SDS011;65201;21.060;105.826;2023-05-07T08:57:44;24.67;;;20.00;;
76379;SDS011;65201;21.060;105.826;2023-05-07T09:00:10;25.05;;;20.20;;
76379;SDS011;65201;21.060;105.826;2023-05-07T09:02:37;26.00;;;21.45;;
76379;SDS011;65201;21.060;105.826;2023-05-07T09:05:03;29.38;;;20.63;;
76379;SDS011;65201;21.060;105.826;2023-05-07T09:07:29;27.02;;;21.25;;
76379;SDS011;65201;21.060;105.826;2023-05-07T09:09:56;28.67;;;20.43;;
76379;SDS011;65201;21.060;105.826;2023-05-07T09:12:23;26.35;;;21.10;;
76379;SDS011;65201;21.060;105.826;2023-05-07T09:14:49;28.70;;;21.05;;
76379;SDS011;65201;21.060;105.826;2023-05-07T09:17:16;26.17;;;20.42;;
76379;SDS011;65201;21.060;105.826;2023-05-07T09:19:43;26.98;;;21.52;;
76379;SDS011;65201;21.060;105.826;2023-05-07T09:22:10;24.83;;;20.40;;
76379;SDS011;65201;21.060;105.826;2023-05-07T09:24:36;27.90;;;20.75;;
76379;SDS011;65201;21.060;105.826;2023-05-07T09:27:03;26.65;;;21.38;;
76379;SDS011;65201;21.060;105.826;2023-05-07T09:29:30;33.42;;;21.55;;
76379;SDS011;65201;21.060;105.826;2023-05-07T09:32:09;29.33;;;21.40;;
76379;SDS011;65201;21.060;105.826;2023-05-07T09:34:35;27.57;;;21.53;;
76379;SDS011;65201;21.060;105.826;2023-05-07T09:37:02;28.95;;;22.70;;
76379;SDS011;65201;21.060;105.826;2023-05-07T09:39:44;30.63;;;22.48;;
76379;SDS011;65201;21.060;105.826;2023-05-07T09:42:10;30.00;;;22.10;;
76379;SDS011;65201;21.060;105.826;2023-05-07T09:44:43;35.83;;;21.30;;
76379;SDS011;65201;21.060;105.826;2023-05-07T09:47:10;29.03;;;21.03;;
76379;SDS011;65201;21.060;105.826;2023-05-07T09:49:38;29.13;;;21.92;;
76379;SDS011;65201;21.060;105.826;2023-05-07T09:52:07;30.23;;;22.65;;
76379;SDS011;65201;21.060;105.826;2023-05-07T09:54:35;30.02;;;22.83;;
76379;SDS011;65201;21.060;105.826;2023-05-07T09:57:03;29.40;;;23.98;;
76379;SDS011;65201;21.060;105.826;2023-05-07T09:59:31;30.30;;;24.07;;
76379;SDS011;65201;21.060;105.826;2023-05-07T10:01:58;33.88;;;24.15;;
76379;SDS011;65201;21.060;105.826;2023-05-07T10:04:24;31.45;;;24.33;;
76379;SDS011;65201;21.060;105.826;2023-05-07T10:06:51;40.78;;;24.80;;
76379;SDS011;65201;21.060;105.826;2023-05-07T10:09:19;35.70;;;24.70;;
76379;SDS011;65201;21.060;105.826;2023-05-07T10:11:45;35.87;;;23.53;;
76379;SDS011;65201;21.060;105.826;2023-05-07T10:14:11;41.22;;;23.65;;
76379;SDS011;65201;21.060;105.826;2023-05-07T10:16:38;36.13;;;24.50;;
76379;SDS011;65201;21.060;105.826;2023-05-07T10:19:04;40.13;;;24.67;;
76379;SDS011;65201;21.060;105.826;2023-05-07T10:21:30;32.50;;;24.17;;
76379;SDS011;65201;21.060;105.826;2023-05-07T10:24:06;37.57;;;22.67;;
76379;SDS011;65201;21.060;105.826;2023-05-07T10:26:42;33.13;;;23.42;;
76379;SDS011;65201;21.060;105.826;2023-05-07T10:29:14;32.63;;;23.00;;
76379;SDS011;65201;21.060;105.826;2023-05-07T10:34:11;33.78;;;23.08;;
76379;SDS011;65201;21.060;105.826;2023-05-07T10:36:38;32.83;;;22.93;;
76379;SDS011;65201;21.060;105.826;2023-05-07T10:39:05;31.33;;;22.85;;
76379;SDS011;65201;21.060;105.826;2023-05-07T10:41:32;32.53;;;22.67;;
76379;SDS011;65201;21.060;105.826;2023-05-07T10:43:58;34.53;;;22.85;;
76379;SDS011;65201;21.060;105.826;2023-05-07T10:46:26;33.20;;;23.17;;
76379;SDS011;65201;21.060;105.826;2023-05-07T10:51:31;38.95;;;23.50;;
76379;SDS011;65201;21.060;105.826;2023-05-07T10:56:37;43.95;;;23.00;;
76379;SDS011;65201;21.060;105.826;2023-05-07T11:02:09;37.70;;;21.77;;
76379;SDS011;65201;21.060;105.826;2023-05-07T11:04:36;40.40;;;23.73;;
76379;SDS011;65201;21.060;105.826;2023-05-07T11:13:06;29.40;;;21.92;;
76379;SDS011;65201;21.060;105.826;2023-05-07T11:15:07;49.53;;;21.87;;
76379;SDS011;65201;21.060;105.826;2023-05-07T11:17:34;32.95;;;21.73;;
76379;SDS011;65201;21.060;105.826;2023-05-07T11:20:01;33.15;;;22.42;;
76379;SDS011;65201;21.060;105.826;2023-05-07T11:25:00;32.95;;;22.52;;
76379;SDS011;65201;21.060;105.826;2023-05-07T11:27:26;40.33;;;22.17;;
76379;SDS011;65201;21.060;105.826;2023-05-07T11:29:52;31.58;;;22.20;;
76379;SDS011;65201;21.060;105.826;2023-05-07T11:32:22;35.33;;;22.30;;
76379;SDS011;65201;21.060;105.826;2023-05-07T11:34:51;33.85;;;22.00;;
76379;SDS011;65201;21.060;105.826;2023-05-07T11:37:18;36.15;;;22.45;;
76379;SDS011;65201;21.060;105.826;2023-05-07T11:39:45;33.13;;;22.37;;
76379;SDS011;65201;21.060;105.826;2023-05-07T11:42:29;37.80;;;23.35;;
76379;SDS011;65201;21.060;105.826;2023-05-07T11:44:56;39.38;;;22.88;;
76379;SDS011;65201;21.060;105.826;2023-05-07T11:47:22;36.45;;;21.48;;
76379;SDS011;65201;21.060;105.826;2023-05-07T11:49:50;36.42;;;23.40;;
76379;SDS011;65201;21.060;105.826;2023-05-07T11:52:17;34.57;;;23.30;;
76379;SDS011;65201;21.060;105.826;2023-05-07T11:54:50;35.55;;;23.30;;
76379;SDS011;65201;21.060;105.826;2023-05-07T11:57:16;35.10;;;23.95;;
76379;SDS011;65201;21.060;105.826;2023-05-07T11:59:43;31.40;;;22.83;;
76379;SDS011;65201;21.060;105.826;2023-05-07T12:02:15;35.30;;;23.27;;
76379;SDS011;65201;21.060;105.826;2023-05-07T12:04:41;36.63;;;23.17;;
76379;SDS011;65201;21.060;105.826;2023-05-07T12:07:11;42.85;;;25.00;;
76379;SDS011;65201;21.060;105.826;2023-05-07T12:09:38;38.53;;;24.13;;
76379;SDS011;65201;21.060;105.826;2023-05-07T12:12:04;37.95;;;24.88;;
76379;SDS011;65201;21.060;105.826;2023-05-07T12:14:30;40.70;;;25.55;;
76379;SDS011;65201;21.060;105.826;2023-05-07T12:16:58;36.97;;;24.40;;
76379;SDS011;65201;21.060;105.826;2023-05-07T12:19:27;38.42;;;24.52;;
76379;SDS011;65201;21.060;105.826;2023-05-07T12:21:54;36.47;;;23.40;;
76379;SDS011;65201;21.060;105.826;2023-05-07T12:24:20;35.33;;;22.35;;
76379;SDS011;65201;21.060;105.826;2023-05-07T12:26:46;31.90;;;21.98;;
76379;SDS011;65201;21.060;105.826;2023-05-07T12:29:12;30.17;;;20.63;;
76379;SDS011;65201;21.060;105.826;2023-05-07T12:31:42;30.65;;;20.30;;
76379;SDS011;65201;21.060;105.826;2023-05-07T12:34:10;30.23;;;21.30;;
76379;SDS011;65201;21.060;105.826;2023-05-07T12:36:39;29.55;;;20.17;;
76379;SDS011;65201;21.060;105.826;2023-05-07T12:39:06;32.42;;;19.52;;
76379;SDS011;65201;21.060;105.826;2023-05-07T12:41:53;30.47;;;19.87;;
76379;SDS011;65201;21.060;105.826;2023-05-07T12:44:22;30.05;;;19.13;;
76379;SDS011;65201;21.060;105.826;2023-05-07T12:46:49;27.52;;;19.05;;
76379;SDS011;65201;21.060;105.826;2023-05-07T12:49:16;27.40;;;19.30;;
76379;SDS011;65201;21.060;105.826;2023-05-07T12:51:43;30.52;;;18.40;;
76379;SDS011;65201;21.060;105.826;2023-05-07T12:54:10;29.27;;;18.03;;
76379;SDS011;65201;21.060;105.826;2023-05-07T12:56:36;27.75;;;18.58;;
76379;SDS011;65201;21.060;105.826;2023-05-07T12:59:02;28.95;;;19.00;;
76379;SDS011;65201;21.060;105.826;2023-05-07T13:01:33;24.67;;;18.05;;
76379;SDS011;65201;21.060;105.826;2023-05-07T13:04:00;22.90;;;17.00;;
76379;SDS011;65201;21.060;105.826;2023-05-07T13:06:27;26.03;;;16.70;;
76379;SDS011;65201;21.060;105.826;2023-05-07T13:08:53;22.48;;;17.27;;
76379;SDS011;65201;21.060;105.826;2023-05-07T13:11:19;27.27;;;17.83;;
76379;SDS011;65201;21.060;105.826;2023-05-07T13:13:46;25.77;;;16.88;;
76379;SDS011;65201;21.060;105.826;2023-05-07T13:16:12;23.58;;;16.25;;
76379;SDS011;65201;21.060;105.826;2023-05-07T13:18:38;25.30;;;16.77;;
76379;SDS011;65201;21.060;105.826;2023-05-07T13:21:05;22.75;;;16.70;;
76379;SDS011;65201;21.060;105.826;2023-05-07T13:23:31;26.45;;;16.83;;
76379;SDS011;65201;21.060;105.826;2023-05-07T13:25:57;28.75;;;17.45;;
76379;SDS011;65201;21.060;105.826;2023-05-07T13:28:24;24.13;;;16.45;;
76379;SDS011;65201;21.060;105.826;2023-05-07T13:30:51;22.43;;;16.07;;
76379;SDS011;65201;21.060;105.826;2023-05-07T13:33:18;22.00;;;15.93;;
76379;SDS011;65201;21.060;105.826;2023-05-07T13:35:44;25.08;;;16.98;;
76379;SDS011;65201;21.060;105.826;2023-05-07T13:38:10;26.90;;;17.10;;
76379;SDS011;65201;21.060;105.826;2023-05-07T13:40:36;27.02;;;17.30;;
76379;SDS011;65201;21.060;105.826;2023-05-07T13:43:02;27.43;;;17.17;;
76379;SDS011;65201;21.060;105.826;2023-05-07T13:45:29;22.88;;;16.83;;
76379;SDS011;65201;21.060;105.826;2023-05-07T13:47:55;25.02;;;17.17;;
76379;SDS011;65201;21.060;105.826;2023-05-07T13:50:22;25.20;;;16.73;;
76379;SDS011;65201;21.060;105.826;2023-05-07T13:52:48;23.00;;;16.67;;
76379;SDS011;65201;21.060;105.826;2023-05-07T13:55:20;27.00;;;16.67;;
76379;SDS011;65201;21.060;105.826;2023-05-07T13:57:46;22.92;;;16.50;;
76379;SDS011;65201;21.060;105.826;2023-05-07T14:00:13;24.60;;;15.73;;
76379;SDS011;65201;21.060;105.826;2023-05-07T14:02:40;26.35;;;16.58;;
76379;SDS011;65201;21.060;105.826;2023-05-07T14:05:06;25.50;;;16.02;;
76379;SDS011;65201;21.060;105.826;2023-05-07T14:07:33;25.47;;;15.97;;
76379;SDS011;65201;21.060;105.826;2023-05-07T14:10:00;21.08;;;15.50;;
76379;SDS011;65201;21.060;105.826;2023-05-07T14:12:26;21.83;;;14.48;;